Time;durP1;ratioP1;P1;durP2;ratioP2;P2;SDS_P1;SDS_P2;PMS_P1;PMS_P2;Temp;Humidity;BMP_temperature;BMP_pressure;BME280_temperature;BME280_humidity;BME280_pressure;Samples;Min_cycle;Max_cycle;Signal;HPM_P1;HPM_P2
2022/05/26 00:00:14;;;;;;;2.20;1.48;;;;;;;;;;4993164;28;20418;-49
2022/05/26 00:02:41;;;;;;;2.25;1.35;;;;;;;;;;4993194;28;20104;-51
2022/05/26 00:05:09;;;;;;;22.05;1.90;;;;;;;;;;4993175;28;20406;-52
2022/05/26 00:07:36;;;;;;;3.33;1.70;;;;;;;;;;4993170;28;20591;-50
2022/05/26 00:10:05;;;;;;;3.33;1.80;;;;;;;;;;4993008;28;20053;-64
2022/05/26 00:12:33;;;;;;;2.55;1.45;;;;;;;;;;4992972;28;20069;-60
2022/05/26 00:15:00;;;;;;;3.85;1.67;;;;;;;;;;4992920;28;20062;-60
2022/05/26 00:17:28;;;;;;;9.70;1.65;;;;;;;;;;4993040;28;20054;-62
2022/05/26 00:19:56;;;;;;;1.90;1.40;;;;;;;;;;4992825;28;20066;-50
2022/05/26 00:22:23;;;;;;;4.82;1.55;;;;;;;;;;4991285;28;20441;-58
2022/05/26 00:24:51;;;;;;;5.28;1.60;;;;;;;;;;4992664;28;20050;-62
2022/05/26 00:27:18;;;;;;;3.75;1.48;;;;;;;;;;4993059;28;20069;-56
2022/05/26 00:29:45;;;;;;;4.28;1.70;;;;;;;;;;5007898;28;20042;-54
2022/05/26 00:32:13;;;;;;;2.50;1.38;;;;;;;;;;4992829;28;20038;-57
2022/05/26 00:34:40;;;;;;;3.92;2.08;;;;;;;;;;4992534;28;20054;-55
2022/05/26 00:37:09;;;;;;;4.45;1.70;;;;;;;;;;4992318;28;20141;-58
2022/05/26 00:39:38;;;;;;;2.80;1.42;;;;;;;;;;4992490;28;20035;-48
2022/05/26 00:42:07;;;;;;;4.22;2.25;;;;;;;;;;4992529;28;20039;-58
2022/05/26 00:44:35;;;;;;;3.72;2.05;;;;;;;;;;4992496;28;20042;-51
2022/05/26 00:47:17;;;;;;;4.15;1.95;;;;;;;;;;4992376;28;20049;-57
2022/05/26 00:49:50;;;;;;;5.63;2.05;;;;;;;;;;4992241;28;20038;-48
2022/05/26 00:52:22;;;;;;;4.05;2.03;;;;;;;;;;4992259;28;20046;-53
2022/05/26 00:54:52;;;;;;;4.13;2.30;;;;;;;;;;4992282;28;20038;-52
2022/05/26 00:57:47;;;;;;;4.03;2.10;;;;;;;;;;4992203;28;20054;-50
2022/05/26 01:00:17;;;;;;;4.85;2.33;;;;;;;;;;4990771;28;20050;-51
2022/05/26 01:02:53;;;;;;;4.95;2.17;;;;;;;;;;4992406;28;20053;-51
2022/05/26 01:05:27;;;;;;;5.18;2.53;;;;;;;;;;4992059;28;20057;-52
2022/05/26 01:07:56;;;;;;;3.55;2.10;;;;;;;;;;4992023;28;20402;-49
2022/05/26 01:10:24;;;;;;;4.75;2.42;;;;;;;;;;4991717;28;20070;-54
2022/05/26 01:12:51;;;;;;;4.05;2.20;;;;;;;;;;4992121;28;20042;-53
2022/05/26 01:15:22;;;;;;;3.13;2.03;;;;;;;;;;4992091;28;20050;-53
2022/05/26 01:18:14;;;;;;;6.95;2.42;;;;;;;;;;4991749;28;20045;-52
2022/05/26 01:20:52;;;;;;;3.60;2.25;;;;;;;;;;4991768;28;20058;-51
2022/05/26 01:23:41;;;;;;;4.50;2.60;;;;;;;;;;4991938;28;20100;-53
2022/05/26 01:26:49;;;;;;;4.47;2.47;;;;;;;;;;4991432;28;20050;-53
2022/05/26 01:29:34;;;;;;;5.03;2.00;;;;;;;;;;4991443;28;20035;-53
2022/05/26 01:32:16;;;;;;;4.75;2.33;;;;;;;;;;4991708;28;20038;-54
2022/05/26 01:34:44;;;;;;;5.78;2.33;;;;;;;;;;4991922;28;20053;-52
2022/05/26 01:37:29;;;;;;;7.43;2.13;;;;;;;;;;4991916;28;20073;-51
2022/05/26 01:40:10;;;;;;;6.70;2.50;;;;;;;;;;4991756;28;20042;-51
2022/05/26 01:43:03;;;;;;;4.30;2.08;;;;;;;;;;4992439;28;20460;-49
2022/05/26 01:46:01;;;;;;;6.97;2.70;;;;;;;;;;4992050;28;20454;-55
2022/05/26 01:48:36;;;;;;;5.93;2.30;;;;;;;;;;5006688;28;20038;-59
2022/05/26 01:51:13;;;;;;;4.70;2.17;;;;;;;;;;4991809;28;20046;-61
2022/05/26 01:53:52;;;;;;;10.27;3.00;;;;;;;;;;4991415;28;20066;-63
2022/05/26 01:56:28;;;;;;;7.50;2.80;;;;;;;;;;4991226;28;20038;-61
2022/05/26 01:59:27;;;;;;;5.80;2.30;;;;;;;;;;4991390;28;20145;-52
2022/05/26 02:02:03;;;;;;;7.90;2.60;;;;;;;;;;4991657;28;20414;-57
2022/05/26 02:04:39;;;;;;;4.72;2.15;;;;;;;;;;4991600;28;20042;-58
2022/05/26 02:07:34;;;;;;;4.63;2.50;;;;;;;;;;4991514;28;20038;-61
2022/05/26 02:10:05;;;;;;;7.65;2.67;;;;;;;;;;4971921;28;20070;-59
2022/05/26 02:12:39;;;;;;;5.95;2.90;;;;;;;;;;4972088;28;20042;-52
2022/05/26 02:15:26;;;;;;;5.38;2.70;;;;;;;;;;4971819;28;20057;-53
2022/05/26 02:18:01;;;;;;;6.63;2.85;;;;;;;;;;4971978;28;20046;-50
2022/05/26 02:20:43;;;;;;;4.22;2.72;;;;;;;;;;4971898;28;20051;-54
2022/05/26 02:23:26;;;;;;;4.60;2.83;;;;;;;;;;4971896;28;20435;-52
2022/05/26 02:25:55;;;;;;;6.47;2.70;;;;;;;;;;4971792;28;20080;-51
2022/05/26 02:28:22;;;;;;;5.28;2.78;;;;;;;;;;4971630;28;20046;-56
2022/05/26 02:30:50;;;;;;;5.15;2.80;;;;;;;;;;4988643;28;20096;-58
2022/05/26 02:33:18;;;;;;;4.53;2.45;;;;;;;;;;4991579;28;20042;-53
2022/05/26 02:35:50;;;;;;;4.95;2.67;;;;;;;;;;4991318;28;20126;-54
2022/05/26 02:38:22;;;;;;;4.55;2.83;;;;;;;;;;4992860;28;20041;-50
2022/05/26 02:40:54;;;;;;;5.82;2.60;;;;;;;;;;4995045;28;20359;-49
2022/05/26 02:43:25;;;;;;;5.00;2.83;;;;;;;;;;4994746;28;20048;-52
2022/05/26 02:46:21;;;;;;;4.50;2.83;;;;;;;;;;4994566;28;20104;-51
2022/05/26 02:49:26;;;;;;;4.75;2.47;;;;;;;;;;4994553;28;20050;-54
2022/05/26 02:52:23;;;;;;;7.90;4.35;;;;;;;;;;4994527;28;20565;-51
2022/05/26 02:54:56;;;;;;;5.30;2.70;;;;;;;;;;4994305;28;20074;-48
2022/05/26 02:58:11;;;;;;;8.70;3.83;;;;;;;;;;4994452;28;20491;-51
2022/05/26 03:00:38;;;;;;;;;;;;;;;;;;4973198;28;20051;-51
2022/05/26 03:03:15;;;;;;;3.95;2.65;;;;;;;;;;4984840;28;19922;-53
2022/05/26 03:05:57;;;;;;;108.97;47.20;;;;;;;;;;4994306;28;20045;-52
2022/05/26 03:08:28;;;;;;;16.48;7.30;;;;;;;;;;4994333;28;20035;-52
2022/05/26 03:11:07;;;;;;;5.60;2.90;;;;;;;;;;4994227;28;20045;-54
2022/05/26 03:13:35;;;;;;;4.72;2.53;;;;;;;;;;4994202;28;20510;-53
2022/05/26 03:16:03;;;;;;;5.60;3.00;;;;;;;;;;4993802;28;20034;-52
2022/05/26 03:18:31;;;;;;;5.03;2.75;;;;;;;;;;4998663;28;20073;-53
2022/05/26 03:21:00;;;;;;;4.72;2.97;;;;;;;;;;4994391;28;20094;-54
2022/05/26 03:23:28;;;;;;;49.25;22.52;;;;;;;;;;4994189;28;20105;-52
2022/05/26 03:25:58;;;;;;;7.22;4.60;;;;;;;;;;4993271;28;20049;-57
2022/05/26 03:28:28;;;;;;;4.55;2.78;;;;;;;;;;4993794;28;20453;-52
2022/05/26 03:30:56;;;;;;;4.97;2.58;;;;;;;;;;4993596;28;20046;-52
2022/05/26 03:33:24;;;;;;;11.55;2.70;;;;;;;;;;4993876;28;20046;-55
2022/05/26 03:41:26;;;;;;;6.05;2.85;;;;;;;;;;4993732;28;20042;-54
2022/05/26 03:43:57;;;;;;;4.45;2.85;;;;;;;;;;4993479;28;20093;-52
2022/05/26 03:46:26;;;;;;;4.68;2.50;;;;;;;;;;4993489;28;20151;-53
2022/05/26 03:48:53;;;;;;;3.95;2.80;;;;;;;;;;4993168;28;20125;-54
2022/05/26 03:51:20;;;;;;;7.57;4.43;;;;;;;;;;4993438;28;20113;-53
2022/05/26 03:53:47;;;;;;;7.32;3.50;;;;;;;;;;4993719;28;20375;-51
2022/05/26 03:56:15;;;;;;;9.70;3.03;;;;;;;;;;4993457;28;20133;-57
2022/05/26 03:58:42;;;;;;;4.35;2.58;;;;;;;;;;4993486;28;20133;-53
2022/05/26 04:01:10;;;;;;;7.68;2.88;;;;;;;;;;4993289;28;20074;-52
2022/05/26 04:03:37;;;;;;;5.75;2.78;;;;;;;;;;4993061;28;20066;-53
2022/05/26 04:06:04;;;;;;;6.80;2.88;;;;;;;;;;4993072;28;20446;-51
2022/05/26 04:08:35;;;;;;;5.40;2.50;;;;;;;;;;4991668;28;20038;-49
2022/05/26 04:11:02;;;;;;;5.63;2.40;;;;;;;;;;4993342;28;20035;-51
2022/05/26 04:13:30;;;;;;;3.90;2.30;;;;;;;;;;4992985;28;20542;-50
2022/05/26 04:16:00;;;;;;;5.72;2.63;;;;;;;;;;4992566;28;20821;-49
2022/05/26 04:18:27;;;;;;;3.95;2.30;;;;;;;;;;4992858;28;20042;-53
2022/05/26 04:21:04;;;;;;;4.78;2.13;;;;;;;;;;4992691;28;20057;-51
2022/05/26 04:23:31;;;;;;;4.03;2.28;;;;;;;;;;4992830;28;20105;-53
2022/05/26 04:25:58;;;;;;;5.47;2.97;;;;;;;;;;4992640;28;20046;-51
2022/05/26 04:28:26;;;;;;;5.15;2.30;;;;;;;;;;4992520;28;20125;-48
2022/05/26 04:30:53;;;;;;;4.13;2.13;;;;;;;;;;4992608;28;20038;-53
2022/05/26 04:33:20;;;;;;;3.78;2.30;;;;;;;;;;4992539;28;20046;-53
2022/05/26 04:35:48;;;;;;;4.90;2.05;;;;;;;;;;4992621;28;20090;-53
2022/05/26 04:38:15;;;;;;;5.57;2.47;;;;;;;;;;4992906;28;20046;-50
2022/05/26 04:40:43;;;;;;;4.40;2.22;;;;;;;;;;4992512;28;20046;-50
2022/05/26 04:43:11;;;;;;;4.25;2.47;;;;;;;;;;4992407;28;20096;-55
2022/05/26 04:45:39;;;;;;;5.40;2.90;;;;;;;;;;4992463;28;20092;-51
2022/05/26 04:48:07;;;;;;;6.35;2.15;;;;;;;;;;4992434;28;20406;-50
2022/05/26 04:50:34;;;;;;;9.93;4.05;;;;;;;;;;4992409;28;20043;-54
2022/05/26 04:53:02;;;;;;;3.95;2.30;;;;;;;;;;4992432;28;20041;-64
2022/05/26 04:55:29;;;;;;;3.95;2.30;;;;;;;;;;5007060;28;20114;-54
2022/05/26 04:57:56;;;;;;;3.28;2.35;;;;;;;;;;4992212;28;20428;-53
2022/05/26 05:00:23;;;;;;;4.35;2.40;;;;;;;;;;4991325;28;20498;-53
2022/05/26 05:02:53;;;;;;;4.90;2.20;;;;;;;;;;4992214;28;20122;-53
2022/05/26 05:05:20;;;;;;;3.38;2.00;;;;;;;;;;4992041;28;20451;-59
2022/05/26 05:07:48;;;;;;;4.63;2.22;;;;;;;;;;4992168;28;20571;-53
2022/05/26 05:10:15;;;;;;;4.22;2.47;;;;;;;;;;4992181;28;20038;-48
2022/05/26 05:12:43;;;;;;;3.65;2.38;;;;;;;;;;4992191;28;20042;-52
2022/05/26 05:15:22;;;;;;;3.42;1.75;;;;;;;;;;4991899;28;20367;-50
2022/05/26 05:17:49;;;;;;;8.13;4.35;;;;;;;;;;4992385;28;20078;-52
2022/05/26 05:20:16;;;;;;;8.20;4.63;;;;;;;;;;4992112;28;20125;-52
2022/05/26 05:22:56;;;;;;;5.05;2.20;;;;;;;;;;4991586;28;20537;-51
2022/05/26 05:25:28;;;;;;;3.25;2.10;;;;;;;;;;4991747;28;20053;-49
2022/05/26 05:28:00;;;;;;;6.80;2.63;;;;;;;;;;4991738;28;20042;-55
2022/05/26 05:31:26;;;;;;;5.10;2.33;;;;;;;;;;4991851;28;20049;-53
2022/05/26 05:33:58;;;;;;;3.38;2.00;;;;;;;;;;4970120;28;20526;-51
2022/05/26 05:36:32;;;;;;;5.22;1.95;;;;;;;;;;4987984;28;20039;-53
2022/05/26 05:39:02;;;;;;;4.78;2.20;;;;;;;;;;4990337;28;20093;-52
2022/05/26 05:41:32;;;;;;;4.95;2.20;;;;;;;;;;4991535;28;20105;-52
2022/05/26 05:44:00;;;;;;;4.32;1.60;;;;;;;;;;4991815;28;20420;-50
2022/05/26 05:46:34;;;;;;;3.72;2.05;;;;;;;;;;4991869;28;20077;-53
2022/05/26 05:49:04;;;;;;;7.30;3.03;;;;;;;;;;4991688;28;20129;-56
2022/05/26 05:51:32;;;;;;;4.97;1.90;;;;;;;;;;5001596;28;20131;-52
2022/05/26 05:53:59;;;;;;;4.95;1.80;;;;;;;;;;4991837;28;20108;-52
2022/05/26 05:56:27;;;;;;;4.97;1.88;;;;;;;;;;4991621;28;20050;-51
2022/05/26 05:58:55;;;;;;;3.78;2.28;;;;;;;;;;4991611;28;20046;-50
2022/05/26 06:01:22;;;;;;;4.32;1.77;;;;;;;;;;4991795;28;20034;-51
2022/05/26 06:03:50;;;;;;;3.47;2.33;;;;;;;;;;4991559;28;20038;-52
2022/05/26 06:06:17;;;;;;;3.10;1.80;;;;;;;;;;4991449;28;20532;-48
2022/05/26 06:08:44;;;;;;;3.92;2.15;;;;;;;;;;4991404;28;20520;-52
2022/05/26 06:11:11;;;;;;;3.83;2.08;;;;;;;;;;4991650;28;20141;-50
2022/05/26 06:13:39;;;;;;;10.05;5.35;;;;;;;;;;4995463;28;20066;-51
2022/05/26 06:16:06;;;;;;;5.30;2.70;;;;;;;;;;4995014;28;20096;-54
2022/05/26 06:18:34;;;;;;;4.68;2.45;;;;;;;;;;4995171;28;20128;-52
2022/05/26 06:21:06;;;;;;;2.88;1.90;;;;;;;;;;4994911;28;20073;-55
2022/05/26 06:23:34;;;;;;;2.80;1.48;;;;;;;;;;4995380;28;20048;-53
2022/05/26 06:26:01;;;;;;;4.03;1.80;;;;;;;;;;4995099;28;20494;-64
2022/05/26 06:31:16;;;;;;;2.22;1.38;;;;;;;;;;4975268;28;20046;-55
2022/05/26 06:39:16;;;;;;;2.45;1.58;;;;;;;;;;4975673;28;20582;-51
2022/05/26 06:44:34;;;;;;;5.35;2.95;;;;;;;;;;4975191;28;20364;-54
2022/05/26 06:47:03;;;;;;;6.95;1.50;;;;;;;;;;4975223;28;20046;-51
2022/05/26 06:49:33;;;;;;;2.50;1.58;;;;;;;;;;4975467;28;20454;-54
2022/05/26 06:52:01;;;;;;;4.38;1.42;;;;;;;;;;4975206;28;20114;-50
2022/05/26 06:54:34;;;;;;;2.92;1.77;;;;;;;;;;4974958;28;20070;-53
2022/05/26 06:57:01;;;;;;;3.55;1.70;;;;;;;;;;4974997;28;20454;-54
2022/05/26 06:59:28;;;;;;;3.45;1.55;;;;;;;;;;4975096;28;20054;-52
2022/05/26 07:01:55;;;;;;;3.60;2.03;;;;;;;;;;4975063;28;20121;-50
2022/05/26 07:04:26;;;;;;;4.10;2.00;;;;;;;;;;4974806;28;20050;-55
2022/05/26 07:06:54;;;;;;;3.55;1.95;;;;;;;;;;4974792;28;20035;-52
2022/05/26 07:09:25;;;;;;;5.53;3.50;;;;;;;;;;4974514;28;20035;-50
2022/05/26 07:11:52;;;;;;;5.57;1.67;;;;;;;;;;4974734;28;20071;-53
2022/05/26 07:14:19;;;;;;;3.70;1.50;;;;;;;;;;4974848;28;20050;-54
2022/05/26 07:16:47;;;;;;;3.97;1.77;;;;;;;;;;4975035;28;20042;-49
2022/05/26 07:19:16;;;;;;;2.67;1.42;;;;;;;;;;4974041;28;20050;-52
2022/05/26 07:21:46;;;;;;;6.95;1.80;;;;;;;;;;4974762;28;20051;-50
2022/05/26 07:24:19;;;;;;;2.13;1.20;;;;;;;;;;4992517;28;20038;-50
2022/05/26 07:26:47;;;;;;;4.25;1.20;;;;;;;;;;4992811;28;20046;-49
2022/05/26 07:29:16;;;;;;;2.83;1.60;;;;;;;;;;4989781;28;20049;-51
2022/05/26 07:31:43;;;;;;;8.80;1.60;;;;;;;;;;4974161;28;20447;-51
2022/05/26 07:34:18;;;;;;;2.17;1.35;;;;;;;;;;4974523;28;20045;-50
2022/05/26 07:42:20;;;;;;;2.80;1.45;;;;;;;;;;4974160;28;20043;-51
2022/05/26 07:44:50;;;;;;;3.85;1.92;;;;;;;;;;4974443;28;20113;-50
2022/05/26 07:47:17;;;;;;;6.50;1.55;;;;;;;;;;4974506;28;20122;-53
2022/05/26 07:49:47;;;;;;;8.02;5.15;;;;;;;;;;4983231;28;20090;-52
2022/05/26 07:52:18;;;;;;;3.50;1.50;;;;;;;;;;4974388;28;20049;-51
2022/05/26 07:54:45;;;;;;;5.07;1.60;;;;;;;;;;4973786;28;20038;-50
2022/05/26 07:57:23;;;;;;;5.30;1.90;;;;;;;;;;4974023;28;20051;-52
2022/05/26 07:59:51;;;;;;;2.88;1.42;;;;;;;;;;4974158;28;20454;-51
2022/05/26 08:02:20;;;;;;;2.67;1.63;;;;;;;;;;4974130;28;20051;-61
2022/05/26 08:04:48;;;;;;;2.90;1.85;;;;;;;;;;4973861;28;20039;-54
2022/05/26 08:07:15;;;;;;;6.95;2.90;;;;;;;;;;4973684;28;20050;-49
2022/05/26 08:09:43;;;;;;;4.82;1.42;;;;;;;;;;4973731;28;20045;-55
2022/05/26 08:12:12;;;;;;;3.97;1.70;;;;;;;;;;4973793;28;20038;-51
2022/05/26 08:14:41;;;;;;;4.30;1.38;;;;;;;;;;4973554;28;20078;-52
2022/05/26 08:17:15;;;;;;;5.28;1.60;;;;;;;;;;4973433;28;20046;-53
2022/05/26 08:19:43;;;;;;;2.72;1.45;;;;;;;;;;4972918;28;20051;-51
2022/05/26 08:22:10;;;;;;;3.78;1.42;;;;;;;;;;4973686;28;20043;-53
2022/05/26 08:24:38;;;;;;;3.08;1.67;;;;;;;;;;4973633;28;20042;-51
2022/05/26 08:27:05;;;;;;;4.43;1.65;;;;;;;;;;4973543;28;20050;-53
2022/05/26 08:29:34;;;;;;;2.28;1.40;;;;;;;;;;4979632;28;20387;-52
2022/05/26 08:32:02;;;;;;;3.85;1.50;;;;;;;;;;4992780;28;20039;-55
2022/05/26 08:34:29;;;;;;;3.90;1.50;;;;;;;;;;4992160;28;20066;-53
2022/05/26 08:36:56;;;;;;;8.52;4.97;;;;;;;;;;4990986;28;20046;-49
2022/05/26 08:39:24;;;;;;;7.35;3.25;;;;;;;;;;4992655;28;20105;-55
2022/05/26 08:41:53;;;;;;;7.25;3.00;;;;;;;;;;4992817;28;20062;-55
2022/05/26 08:44:31;;;;;;;3.10;1.60;;;;;;;;;;4992623;28;20050;-52
2022/05/26 08:47:08;;;;;;;4.05;1.67;;;;;;;;;;4992126;28;20050;-53
2022/05/26 08:49:48;;;;;;;5.28;1.50;;;;;;;;;;4992427;28;20097;-50
2022/05/26 08:52:41;;;;;;;2.78;1.25;;;;;;;;;;5007245;28;20135;-52
2022/05/26 08:55:15;;;;;;;3.85;1.77;;;;;;;;;;4989677;28;20062;-49
2022/05/26 08:58:04;;;;;;;6.38;1.85;;;;;;;;;;4992238;28;20038;-53
2022/05/26 09:00:32;;;;;;;4.00;1.50;;;;;;;;;;4992141;28;20043;-52
2022/05/26 09:03:00;;;;;;;3.38;1.40;;;;;;;;;;4992052;28;20104;-52
2022/05/26 09:05:37;;;;;;;3.00;1.17;;;;;;;;;;4992216;28;20049;-53
2022/05/26 09:13:51;;;;;;;2.92;1.55;;;;;;;;;;4992014;28;20046;-51
2022/05/26 09:16:18;;;;;;;2.38;1.30;;;;;;;;;;4992238;28;20576;-53
2022/05/26 09:19:08;;;;;;;4.30;1.48;;;;;;;;;;4992063;28;20074;-53
2022/05/26 09:21:36;;;;;;;6.72;3.05;;;;;;;;;;4991723;28;20108;-49
2022/05/26 09:24:18;;;;;;;5.47;1.58;;;;;;;;;;4991693;28;20038;-50
2022/05/26 09:26:54;;;;;;;6.35;3.95;;;;;;;;;;4991912;28;20038;-50
2022/05/26 09:29:27;;;;;;;6.15;1.60;;;;;;;;;;4991821;28;20043;-58
2022/05/26 09:31:56;;;;;;;;;;;;;;;;;;4992321;28;20465;-49
2022/05/26 09:35:04;;;;;;;3.17;1.38;;;;;;;;;;4991836;28;19968;-57
2022/05/26 09:37:40;;;;;;;3.47;1.50;;;;;;;;;;4991650;28;20042;-48
2022/05/26 09:40:37;;;;;;;3.05;1.23;;;;;;;;;;4991552;28;20038;-49
2022/05/26 09:43:16;;;;;;;3.55;1.50;;;;;;;;;;4990240;28;20050;-60
2022/05/26 09:45:55;;;;;;;2.67;1.40;;;;;;;;;;4991665;28;20055;-53
2022/05/26 09:48:30;;;;;;;3.67;1.40;;;;;;;;;;4995522;28;20070;-54
2022/05/26 09:51:24;;;;;;;6.28;1.30;;;;;;;;;;4995623;28;20056;-49
2022/05/26 09:53:54;;;;;;;3.38;1.40;;;;;;;;;;4995789;28;20046;-62
2022/05/26 09:56:32;;;;;;;4.18;1.40;;;;;;;;;;4995498;28;20512;-53
2022/05/26 09:59:27;;;;;;;3.25;1.70;;;;;;;;;;4995579;28;20042;-56
2022/05/26 10:02:27;;;;;;;2.22;1.20;;;;;;;;;;4995619;28;20050;-56
2022/05/26 10:05:41;;;;;;;3.08;1.33;;;;;;;;;;4994906;28;20050;-52
2022/05/26 10:08:35;;;;;;;2.00;1.20;;;;;;;;;;4992971;28;20089;-52
2022/05/26 10:11:09;;;;;;;;;;;;;;;;;;4993682;28;20129;-51
2022/05/26 10:13:51;;;;;;;14.20;7.32;;;;;;;;;;4994834;28;19925;-52
2022/05/26 10:16:34;;;;;;;182.30;97.95;;;;;;;;;;4995195;28;20045;-51
2022/05/26 10:19:31;;;;;;;5.87;2.60;;;;;;;;;;4995074;28;20045;-53
2022/05/26 10:22:24;;;;;;;2.35;1.30;;;;;;;;;;4995200;28;20084;-53
2022/05/26 10:25:16;;;;;;;2.28;1.10;;;;;;;;;;4995058;28;20048;-54
2022/05/26 10:28:08;;;;;;;1.50;0.93;;;;;;;;;;4995244;28;20077;-51
2022/05/26 10:31:04;;;;;;;4.20;2.60;;;;;;;;;;4980102;28;20502;-53
2022/05/26 10:33:53;;;;;;;1.58;1.02;;;;;;;;;;4967384;28;20058;-49
2022/05/26 10:36:50;;;;;;;2.28;1.40;;;;;;;;;;4975729;28;20054;-48
2022/05/26 10:39:41;;;;;;;2.33;1.40;;;;;;;;;;4965720;28;20097;-55
2022/05/26 10:42:18;;;;;;;2.55;1.00;;;;;;;;;;4975336;28;20521;-53
2022/05/26 10:45:10;;;;;;;4.88;1.45;;;;;;;;;;4975288;28;20130;-51
2022/05/26 10:47:58;;;;;;;4.82;1.42;;;;;;;;;;4974801;28;20592;-54
2022/05/26 10:50:44;;;;;;;2.95;1.30;;;;;;;;;;4985397;28;20111;-54
2022/05/26 10:53:23;;;;;;;3.20;1.10;;;;;;;;;;4994699;28;20086;-52
2022/05/26 10:56:14;;;;;;;2.90;0.98;;;;;;;;;;4994809;28;20038;-54
2022/05/26 10:58:48;;;;;;;2.47;1.40;;;;;;;;;;4993513;28;20137;-53
2022/05/26 11:01:33;;;;;;;2.03;1.10;;;;;;;;;;4994350;28;20449;-54
2022/05/26 11:04:42;;;;;;;2.58;1.38;;;;;;;;;;4994177;28;20077;-53
2022/05/26 11:07:28;;;;;;;1.90;0.88;;;;;;;;;;4993546;28;20466;-52
2022/05/26 11:10:04;;;;;;;3.20;1.17;;;;;;;;;;4994275;28;20041;-60
2022/05/26 11:12:39;;;;;;;4.18;1.00;;;;;;;;;;4994058;28;20049;-55
2022/05/26 11:18:17;;;;;;;4.53;1.30;;;;;;;;;;4994078;28;20046;-54
2022/05/26 11:20:54;;;;;;;1.92;1.00;;;;;;;;;;4994152;28;20050;-52
2022/05/26 11:23:23;;;;;;;3.08;1.27;;;;;;;;;;4994561;28;20580;-55
2022/05/26 11:25:50;;;;;;;3.40;1.10;;;;;;;;;;4994472;28;20125;-52
2022/05/26 11:28:30;;;;;;;2.45;1.40;;;;;;;;;;4994275;28;20409;-54
2022/05/26 11:37:15;;;;;;;4.45;2.22;;;;;;;;;;4974552;28;20050;-56
2022/05/26 11:39:45;;;;;;;3.15;1.48;;;;;;;;;;4973249;28;20053;-51
2022/05/26 11:42:35;;;;;;;2.00;1.10;;;;;;;;;;4974163;28;20066;-49
2022/05/26 11:45:08;;;;;;;1.48;0.80;;;;;;;;;;4974464;28;20047;-52
2022/05/26 11:47:49;;;;;;;;;;;;;;;;;;4974796;28;20081;-52
2022/05/26 11:50:27;;;;;;;3.83;0.90;;;;;;;;;;4974309;28;19929;-51
2022/05/26 11:52:54;;;;;;;1.77;1.23;;;;;;;;;;4974237;28;20043;-50
2022/05/26 11:55:33;;;;;;;2.22;1.13;;;;;;;;;;4974447;28;20039;-52
2022/05/26 11:58:35;;;;;;;1.50;0.90;;;;;;;;;;4973994;28;20070;-51
2022/05/26 12:01:26;;;;;;;1.55;0.90;;;;;;;;;;4992585;28;20125;-49
2022/05/26 12:03:53;;;;;;;2.38;1.15;;;;;;;;;;4990304;28;20514;-53
2022/05/26 12:06:40;;;;;;;2.35;0.93;;;;;;;;;;4993373;28;20065;-50
2022/05/26 12:09:27;;;;;;;1.45;1.00;;;;;;;;;;4992835;28;20050;-51
2022/05/26 12:12:01;;;;;;;1.50;1.00;;;;;;;;;;4993271;28;20081;-51
2022/05/26 12:14:42;;;;;;;16.48;9.07;;;;;;;;;;4992283;28;20034;-52
2022/05/26 12:17:29;;;;;;;3.13;1.15;;;;;;;;;;4984412;28;20454;-48
2022/05/26 12:20:10;;;;;;;2.13;0.90;;;;;;;;;;4973478;28;20055;-52
2022/05/26 12:22:49;;;;;;;1.38;0.80;;;;;;;;;;4973488;28;20045;-52
2022/05/26 12:25:27;;;;;;;2.40;0.90;;;;;;;;;;4973533;28;20074;-52
2022/05/26 12:28:23;;;;;;;1.60;0.80;;;;;;;;;;4973403;28;20043;-51
2022/05/26 12:30:52;;;;;;;1.58;0.85;;;;;;;;;;4989207;28;20522;-49
2022/05/26 12:33:19;;;;;;;1.85;0.98;;;;;;;;;;4992887;28;20050;-49
2022/05/26 12:36:06;;;;;;;2.30;1.02;;;;;;;;;;4992661;28;20057;-53
2022/05/26 12:38:51;;;;;;;29.30;15.40;;;;;;;;;;4992335;28;20501;-49
2022/05/26 12:41:36;;;;;;;3.50;1.77;;;;;;;;;;4992901;28;20034;-52
2022/05/26 12:44:48;;;;;;;2.40;1.08;;;;;;;;;;4992653;28;20548;-51
2022/05/26 12:47:16;;;;;;;1.13;0.70;;;;;;;;;;4992789;28;20050;-53
2022/05/26 12:50:03;;;;;;;2.60;0.77;;;;;;;;;;4992142;28;20050;-50
2022/05/26 12:52:41;;;;;;;2.08;0.88;;;;;;;;;;4992377;28;20046;-54
2022/05/26 12:55:27;;;;;;;1.38;0.80;;;;;;;;;;4992342;28;20034;-52
2022/05/26 12:58:06;;;;;;;4.78;1.02;;;;;;;;;;4992449;28;20125;-56
2022/05/26 13:00:38;;;;;;;2.30;0.90;;;;;;;;;;4992152;28;20042;-54
2022/05/26 13:03:08;;;;;;;1.00;0.80;;;;;;;;;;4992229;28;20038;-51
2022/05/26 13:06:09;;;;;;;1.80;0.80;;;;;;;;;;4992242;28;20046;-53
2022/05/26 13:08:48;;;;;;;4.18;0.90;;;;;;;;;;4992048;28;20046;-54
2022/05/26 13:11:18;;;;;;;0.90;0.60;;;;;;;;;;4992271;28;20026;-52
2022/05/26 13:13:53;;;;;;;1.65;0.70;;;;;;;;;;4992038;28;20043;-55
2022/05/26 13:16:31;;;;;;;1.70;0.73;;;;;;;;;;4992154;28;20046;-52
2022/05/26 13:19:25;;;;;;;2.10;0.85;;;;;;;;;;4990636;28;20061;-52
2022/05/26 13:21:55;;;;;;;2.53;0.70;;;;;;;;;;4990426;28;20069;-52
2022/05/26 13:24:31;;;;;;;3.88;1.10;;;;;;;;;;4991861;28;20101;-51
2022/05/26 13:27:02;;;;;;;2.35;1.00;;;;;;;;;;4991794;28;20042;-52
2022/05/26 13:29:32;;;;;;;3.15;2.03;;;;;;;;;;4991978;28;20057;-52
2022/05/26 13:34:50;;;;;;;1.10;0.70;;;;;;;;;;4991821;28;20130;-52
2022/05/26 13:37:23;;;;;;;;;;;;;;;;;;4992466;28;20125;-56
2022/05/26 13:40:08;;;;;;;0.95;0.63;;;;;;;;;;4992104;28;19922;-49
2022/05/26 13:42:39;;;;;;;1.83;0.73;;;;;;;;;;4991696;28;20077;-49
2022/05/26 13:45:13;;;;;;;1.77;0.70;;;;;;;;;;4990902;28;20482;-49
2022/05/26 13:47:41;;;;;;;3.88;0.93;;;;;;;;;;4991602;28;20046;-49
2022/05/26 13:50:09;;;;;;;2.20;0.68;;;;;;;;;;4991789;28;20042;-49
2022/05/26 13:52:39;;;;;;;7.00;0.80;;;;;;;;;;4991738;28;20042;-50
2022/05/26 13:55:20;;;;;;;2.53;0.70;;;;;;;;;;4991321;28;20533;-54
2022/05/26 13:57:50;;;;;;;2.03;0.70;;;;;;;;;;4991614;28;20101;-48
2022/05/26 14:00:28;;;;;;;1.58;0.60;;;;;;;;;;4991594;28;20061;-49
2022/05/26 14:02:59;;;;;;;1.02;0.60;;;;;;;;;;4990362;28;20058;-52
2022/05/26 14:05:29;;;;;;;1.52;0.60;;;;;;;;;;4991607;28;20065;-51
2022/05/26 14:07:59;;;;;;;1.20;0.80;;;;;;;;;;4991621;28;20379;-48
2022/05/26 14:10:29;;;;;;;2.15;0.80;;;;;;;;;;4990861;28;20038;-52
2022/05/26 14:13:08;;;;;;;0.90;0.57;;;;;;;;;;4991585;28;20045;-51
2022/05/26 14:15:54;;;;;;;0.98;0.50;;;;;;;;;;4991550;28;20133;-50
2022/05/26 14:18:36;;;;;;;4.65;0.80;;;;;;;;;;4991720;28;20402;-53
2022/05/26 14:21:13;;;;;;;0.73;0.53;;;;;;;;;;4991238;28;20514;-55
2022/05/26 14:24:03;;;;;;;9.20;6.10;;;;;;;;;;4991316;28;20316;-51
2022/05/26 14:26:38;;;;;;;3.25;2.13;;;;;;;;;;4991187;28;20050;-53
2022/05/26 14:29:29;;;;;;;3.08;0.70;;;;;;;;;;4988692;28;20510;-52
2022/05/26 14:32:24;;;;;;;5.63;0.85;;;;;;;;;;4969147;28;20082;-51
2022/05/26 14:35:11;;;;;;;3.50;0.70;;;;;;;;;;4975538;28;20111;-51
2022/05/26 14:37:39;;;;;;;1.10;0.73;;;;;;;;;;4975224;28;20051;-52
2022/05/26 14:40:07;;;;;;;1.65;0.70;;;;;;;;;;4975572;28;20109;-49
2022/05/26 14:42:38;;;;;;;1.33;0.70;;;;;;;;;;4975507;28;20045;-50
2022/05/26 14:45:10;;;;;;;1.70;0.65;;;;;;;;;;4975371;28;20049;-54
2022/05/26 14:47:38;;;;;;;1.80;0.73;;;;;;;;;;4979513;28;20102;-51
2022/05/26 14:50:07;;;;;;;6.75;3.88;;;;;;;;;;4975155;28;20043;-53
2022/05/26 14:52:38;;;;;;;4.88;2.55;;;;;;;;;;4975167;28;20098;-48
2022/05/26 14:55:30;;;;;;;1.95;0.60;;;;;;;;;;4975289;28;20380;-50
2022/05/26 14:58:03;;;;;;;3.03;0.75;;;;;;;;;;4975040;28;20057;-52
2022/05/26 15:00:38;;;;;;;1.90;0.73;;;;;;;;;;4975172;28;20097;-51
2022/05/26 15:03:06;;;;;;;1.58;0.65;;;;;;;;;;4974977;28;20109;-51
2022/05/26 15:05:34;;;;;;;1.15;0.70;;;;;;;;;;4975055;28;20042;-49
2022/05/26 15:08:13;;;;;;;1.80;0.50;;;;;;;;;;4974916;28;20038;-53
2022/05/26 15:10:41;;;;;;;1.98;0.70;;;;;;;;;;4974800;28;20144;-50
2022/05/26 15:13:08;;;;;;;2.55;0.80;;;;;;;;;;4974775;28;20074;-51
2022/05/26 15:15:36;;;;;;;1.58;0.80;;;;;;;;;;4974755;28;20114;-49
2022/05/26 15:18:03;;;;;;;1.35;0.60;;;;;;;;;;4974779;28;20109;-52
2022/05/26 15:20:32;;;;;;;1.65;0.90;;;;;;;;;;4974559;28;20069;-54
2022/05/26 15:22:59;;;;;;;1.48;0.77;;;;;;;;;;4974783;28;20502;-49
2022/05/26 15:25:27;;;;;;;1.10;0.60;;;;;;;;;;4974526;28;20565;-48
2022/05/26 15:27:57;;;;;;;1.90;0.77;;;;;;;;;;4974638;28;20465;-53
2022/05/26 15:30:27;;;;;;;2.80;0.80;;;;;;;;;;4987831;28;20066;-62
2022/05/26 15:32:54;;;;;;;27.60;17.45;;;;;;;;;;5009207;28;20046;-52
2022/05/26 15:35:21;;;;;;;4.80;1.55;;;;;;;;;;4993889;28;20038;-52
2022/05/26 15:37:54;;;;;;;2.08;0.60;;;;;;;;;;4994073;28;20049;-48
2022/05/26 15:40:23;;;;;;;3.88;0.80;;;;;;;;;;4994235;28;20042;-53
2022/05/26 15:42:52;;;;;;;1.48;0.70;;;;;;;;;;4993807;28;20050;-51
2022/05/26 15:45:19;;;;;;;1.38;0.70;;;;;;;;;;4992950;28;20038;-50
2022/05/26 15:47:47;;;;;;;2.08;0.60;;;;;;;;;;4993320;28;20046;-51
2022/05/26 15:50:18;;;;;;;0.93;0.57;;;;;;;;;;4993679;28;20046;-49
2022/05/26 15:52:45;;;;;;;1.52;0.93;;;;;;;;;;4993644;28;20178;-58
2022/05/26 15:55:13;;;;;;;4.68;2.38;;;;;;;;;;4993794;28;20034;-52
2022/05/26 15:57:41;;;;;;;3.58;1.13;;;;;;;;;;4993458;28;20043;-53
2022/05/26 16:00:13;;;;;;;1.63;0.70;;;;;;;;;;4993362;28;20035;-53
2022/05/26 16:02:42;;;;;;;2.55;1.00;;;;;;;;;;4993172;28;20077;-49
2022/05/26 16:05:11;;;;;;;1.23;0.60;;;;;;;;;;4991880;28;20046;-52
2022/05/26 16:07:40;;;;;;;0.70;0.50;;;;;;;;;;4993351;28;20054;-47